Time;durP1;ratioP1;P1;durP2;ratioP2;P2;SDS_P1;SDS_P2;PMS_P1;PMS_P2;Temp;Humidity;BMP_temperature;BMP_pressure;BME280_temperature;BME280_humidity;BME280_pressure;Samples;Min_cycle;Max_cycle;Signal;HPM_P1;HPM_P2
2022/08/29 00:01:34;;;;;;;1999.90;999.90;;;15.70;99.90;;;;;;5073947;28;20047;-74
2022/08/29 00:04:00;;;;;;;1999.90;999.90;;;15.70;99.90;;;;;;5052649;28;20484;-74
2022/08/29 00:06:26;;;;;;;1999.90;999.90;;;15.70;99.90;;;;;;5101958;28;20117;-74
2022/08/29 00:08:51;;;;;;;1999.90;999.90;;;15.70;99.90;;;;;;5063957;28;20044;-74
2022/08/29 00:11:18;;;;;;;1999.90;999.90;;;15.70;99.90;;;;;;5069486;28;20047;-74
2022/08/29 00:13:43;;;;;;;1999.90;999.90;;;15.70;99.90;;;;;;5056912;28;20135;-74
2022/08/29 00:16:09;;;;;;;1999.90;999.90;;;15.70;99.90;;;;;;5060800;28;20131;-74
2022/08/29 00:18:36;;;;;;;1999.90;999.90;;;15.70;99.90;;;;;;5057221;28;20422;-74
2022/08/29 00:21:02;;;;;;;1999.90;999.90;;;15.70;99.90;;;;;;5051598;28;20525;-74
2022/08/29 00:23:28;;;;;;;1999.90;999.90;;;15.70;99.90;;;;;;5052345;28;20085;-74
2022/08/29 00:25:55;;;;;;;1999.90;999.90;;;15.70;99.90;;;;;;5067732;28;20043;-74
2022/08/29 00:28:21;;;;;;;1999.90;999.90;;;15.70;99.90;;;;;;5060491;28;20072;-74
2022/08/29 00:30:47;;;;;;;1999.90;999.90;;;15.70;99.90;;;;;;5055072;28;20043;-74
2022/08/29 00:33:14;;;;;;;1999.90;999.90;;;15.70;99.90;;;;;;5065854;28;20056;-74
2022/08/29 00:35:41;;;;;;;1999.90;999.90;;;15.70;99.90;;;;;;5069441;28;20136;-74
2022/08/29 00:38:09;;;;;;;1999.90;999.90;;;15.70;99.90;;;;;;5056131;28;20422;-74
2022/08/29 00:40:39;;;;;;;1999.90;999.90;;;15.70;99.90;;;;;;5053218;28;20044;-75
2022/08/29 00:43:06;;;;;;;1999.90;999.90;;;15.70;99.90;;;;;;5068917;28;20098;-75
2022/08/29 00:45:33;;;;;;;1999.90;999.90;;;15.70;99.90;;;;;;5072976;28;20100;-74
2022/08/29 00:48:11;;;;;;;1999.90;999.90;;;15.70;99.90;;;;;;5052471;28;20044;-74
2022/08/29 00:50:50;;;;;;;1999.90;999.90;;;15.70;99.90;;;;;;5072600;28;20048;-75
2022/08/29 00:53:21;;;;;;;1999.90;999.90;;;15.80;99.90;;;;;;5072589;28;20565;-74
2022/08/29 00:55:48;;;;;;;1999.90;999.90;;;15.80;99.90;;;;;;5047151;28;20044;-74
2022/08/29 00:58:26;;;;;;;1999.90;999.90;;;15.80;99.90;;;;;;5071113;28;20040;-74
2022/08/29 01:00:52;;;;;;;1999.90;999.90;;;15.80;99.90;;;;;;5054965;28;20388;-74
2022/08/29 01:03:18;;;;;;;1999.90;999.90;;;15.80;99.90;;;;;;5072966;28;20064;-74
2022/08/29 01:05:45;;;;;;;1999.90;999.90;;;15.80;99.90;;;;;;5072832;28;20435;-74
2022/08/29 01:08:10;;;;;;;1999.90;999.90;;;15.80;99.90;;;;;;5059486;28;20047;-74
2022/08/29 01:13:30;;;;;;;1999.90;999.90;;;15.80;99.90;;;;;;5070512;28;20047;-74
2022/08/29 01:15:57;;;;;;;1999.90;999.90;;;15.80;99.90;;;;;;5048728;28;20137;-74
2022/08/29 01:18:23;;;;;;;1999.90;999.90;;;15.80;99.90;;;;;;5072111;28;20043;-74
2022/08/29 01:21:17;;;;;;;1999.90;999.90;;;15.70;99.90;;;;;;5056273;28;20415;-74
2022/08/29 01:24:08;;;;;;;1999.90;999.90;;;15.70;99.90;;;;;;5050630;28;20449;-75
2022/08/29 01:26:34;;;;;;;1999.90;999.90;;;15.70;99.90;;;;;;5061026;28;20051;-74
2022/08/29 01:28:59;;;;;;;1999.90;999.90;;;15.70;99.90;;;;;;5072356;28;20032;-74
2022/08/29 01:31:35;;;;;;;1999.90;999.90;;;15.70;99.90;;;;;;5072017;28;20131;-74
2022/08/29 01:34:00;;;;;;;1999.90;999.90;;;15.70;99.90;;;;;;5055330;28;20126;-74
2022/08/29 01:36:40;;;;;;;1999.90;999.90;;;15.70;99.90;;;;;;5068443;28;20177;-74
2022/08/29 01:39:06;;;;;;;1999.90;999.90;;;15.70;99.90;;;;;;5051509;28;20036;-74
2022/08/29 01:41:32;;;;;;;1999.90;999.90;;;15.70;99.90;;;;;;5054083;28;20122;-74
2022/08/29 01:43:58;;;;;;;1999.90;999.90;;;15.70;99.90;;;;;;5053996;28;20040;-74
2022/08/29 01:46:31;;;;;;;1999.90;999.90;;;15.70;99.90;;;;;;5055182;28;20047;-74
2022/08/29 01:48:59;;;;;;;1999.90;999.90;;;15.70;99.90;;;;;;5065997;28;20677;-75
2022/08/29 01:51:25;;;;;;;1999.90;999.90;;;15.70;99.90;;;;;;5054723;28;20040;-74
2022/08/29 01:53:51;;;;;;;1999.90;999.90;;;15.70;99.90;;;;;;5053711;28;20040;-74
2022/08/29 01:56:29;;;;;;;1999.90;999.90;;;15.80;99.90;;;;;;5087519;28;20538;-74
2022/08/29 01:58:57;;;;;;;1999.90;999.90;;;15.70;99.90;;;;;;5041921;28;20056;-74
2022/08/29 02:01:33;;;;;;;1999.90;999.90;;;15.70;99.90;;;;;;5056664;28;20131;-74
2022/08/29 02:03:59;;;;;;;1999.90;999.90;;;15.70;99.90;;;;;;5053997;28;20039;-75
2022/08/29 02:06:25;;;;;;;1999.90;999.90;;;15.70;99.90;;;;;;5060883;28;20127;-75
2022/08/29 02:08:51;;;;;;;1999.90;999.90;;;15.70;99.90;;;;;;5066393;28;20040;-75
2022/08/29 02:11:18;;;;;;;1999.90;999.90;;;15.60;99.90;;;;;;5055675;28;20036;-74
2022/08/29 02:13:56;;;;;;;1999.90;999.90;;;15.60;99.90;;;;;;5043608;28;20048;-74
2022/08/29 02:16:24;;;;;;;1999.90;999.90;;;15.60;99.90;;;;;;5052204;28;20109;-76
2022/08/29 02:18:50;;;;;;;1999.90;999.90;;;15.50;99.90;;;;;;5062828;28;20047;-74
2022/08/29 02:21:18;;;;;;;1999.90;999.90;;;15.50;99.90;;;;;;5057671;28;20036;-75
2022/08/29 02:23:45;;;;;;;1999.90;999.90;;;15.50;99.90;;;;;;5060306;28;20407;-74
2022/08/29 02:26:11;;;;;;;1999.90;999.90;;;15.50;99.90;;;;;;5064420;28;20035;-74
2022/08/29 02:28:38;;;;;;;1999.90;999.90;;;15.50;99.90;;;;;;5039631;28;20066;-74
2022/08/29 02:31:04;;;;;;;1999.90;999.90;;;15.50;99.90;;;;;;5052222;28;20060;-74
2022/08/29 02:33:31;;;;;;;1999.90;999.90;;;15.60;99.90;;;;;;5060384;28;20044;-74
2022/08/29 02:35:57;;;;;;;1999.90;999.90;;;15.60;99.90;;;;;;5041218;28;20102;-75
2022/08/29 02:38:23;;;;;;;1999.90;999.90;;;15.60;99.90;;;;;;5061594;28;20044;-74
2022/08/29 02:40:50;;;;;;;1999.90;999.90;;;15.60;99.90;;;;;;5063393;28;20051;-74
2022/08/29 02:43:18;;;;;;;1999.90;999.90;;;15.60;99.90;;;;;;5054217;28;20102;-75
2022/08/29 02:45:45;;;;;;;1999.90;999.90;;;15.60;99.90;;;;;;5051860;28;20047;-74
2022/08/29 02:48:11;;;;;;;1999.90;999.90;;;15.70;99.90;;;;;;5066577;28;20059;-75
2022/08/29 02:50:46;;;;;;;1999.90;999.90;;;15.70;99.90;;;;;;5070025;28;20051;-75
2022/08/29 02:53:14;;;;;;;1999.90;999.90;;;15.70;99.90;;;;;;5053605;28;20476;-75
2022/08/29 02:55:40;;;;;;;1999.90;999.90;;;15.70;99.90;;;;;;5044340;28;20040;-75
2022/08/29 02:58:06;;;;;;;1999.90;999.90;;;15.70;99.90;;;;;;5066454;28;20043;-74
2022/08/29 03:00:33;;;;;;;1999.90;999.90;;;15.70;99.90;;;;;;5058157;28;20047;-74
2022/08/29 03:02:59;;;;;;;1999.90;999.90;;;15.70;99.90;;;;;;5070003;28;20384;-74
2022/08/29 03:05:27;;;;;;;1999.90;999.90;;;15.70;99.90;;;;;;5039455;28;20045;-75
2022/08/29 03:07:55;;;;;;;1999.90;999.90;;;15.70;99.90;;;;;;5070830;28;20054;-75
2022/08/29 03:10:21;;;;;;;1999.90;999.90;;;15.70;99.90;;;;;;5069840;28;20035;-74
2022/08/29 03:12:47;;;;;;;1999.90;999.90;;;15.80;99.90;;;;;;5070069;28;20032;-75
2022/08/29 03:15:14;;;;;;;1999.90;999.90;;;15.80;99.90;;;;;;5059699;28;20125;-74
2022/08/29 03:17:39;;;;;;;1999.90;999.90;;;15.70;99.90;;;;;;5064631;28;20115;-75
2022/08/29 03:20:06;;;;;;;1999.90;999.90;;;15.80;99.90;;;;;;5067379;28;20157;-75
2022/08/29 03:22:33;;;;;;;1999.90;999.90;;;15.80;99.90;;;;;;5064338;28;20524;-74
2022/08/29 03:25:02;;;;;;;1999.90;999.90;;;15.80;99.90;;;;;;5052825;28;20411;-74
2022/08/29 03:27:29;;;;;;;1999.90;999.90;;;15.80;99.90;;;;;;5064347;28;20044;-74
2022/08/29 03:29:55;;;;;;;1999.90;999.90;;;15.80;99.90;;;;;;5046462;28;20483;-74
2022/08/29 03:32:21;;;;;;;1999.90;999.90;;;15.80;99.90;;;;;;5053428;28;20092;-74
2022/08/29 03:34:46;;;;;;;1999.90;999.90;;;15.80;99.90;;;;;;5069363;28;20506;-74
2022/08/29 03:37:12;;;;;;;1999.90;999.90;;;15.70;99.90;;;;;;5044057;28;20058;-74
2022/08/29 03:39:38;;;;;;;1999.90;999.90;;;15.70;99.90;;;;;;5056655;28;20138;-75
2022/08/29 03:42:04;;;;;;;1999.90;999.90;;;15.70;99.90;;;;;;5060394;28;20649;-74
2022/08/29 03:44:35;;;;;;;1999.90;999.90;;;15.70;99.90;;;;;;5046337;28;20056;-75
2022/08/29 03:47:00;;;;;;;1999.90;999.90;;;15.70;99.90;;;;;;5055879;28;20040;-74
2022/08/29 03:49:26;;;;;;;1999.90;999.90;;;15.70;99.90;;;;;;5060392;28;20557;-74
2022/08/29 03:51:52;;;;;;;1999.90;999.90;;;15.70;99.90;;;;;;5068058;28;20032;-75
2022/08/29 03:54:18;;;;;;;1999.90;999.90;;;15.70;99.90;;;;;;5064377;28;20120;-74
2022/08/29 03:56:44;;;;;;;1999.90;999.90;;;15.70;99.90;;;;;;5070179;28;20040;-75
2022/08/29 03:59:11;;;;;;;1999.90;999.90;;;15.70;99.90;;;;;;5053726;28;20067;-74
2022/08/29 04:01:37;;;;;;;1999.90;999.90;;;15.70;99.90;;;;;;5047646;28;20392;-75
2022/08/29 04:04:03;;;;;;;1999.90;999.90;;;15.70;99.90;;;;;;5059185;28;20047;-74
2022/08/29 04:06:29;;;;;;;1999.90;999.90;;;15.70;99.90;;;;;;5047119;28;20129;-75
2022/08/29 04:08:55;;;;;;;1999.90;999.90;;;15.70;99.90;;;;;;5057474;28;20118;-74
2022/08/29 04:11:23;;;;;;;1999.90;999.90;;;15.70;99.90;;;;;;5067753;28;20043;-74
2022/08/29 04:13:50;;;;;;;1999.90;999.90;;;15.70;99.90;;;;;;5070026;28;20502;-74
2022/08/29 04:16:19;;;;;;;1999.90;999.90;;;15.70;99.90;;;;;;5057430;28;20040;-74
2022/08/29 04:18:45;;;;;;;1999.90;999.90;;;15.70;99.90;;;;;;5073614;28;20036;-74
2022/08/29 04:21:11;;;;;;;1999.90;999.90;;;15.60;99.90;;;;;;5071604;28;20047;-75
2022/08/29 04:23:38;;;;;;;1999.90;999.90;;;15.60;99.90;;;;;;5072178;28;20067;-74
2022/08/29 04:26:04;;;;;;;1999.90;999.90;;;15.60;99.90;;;;;;5053345;28;20032;-74
2022/08/29 04:28:30;;;;;;;1999.90;999.90;;;15.50;99.90;;;;;;5056173;28;20078;-75
2022/08/29 04:30:56;;;;;;;1999.90;999.90;;;15.50;99.90;;;;;;5068677;28;20087;-74
2022/08/29 04:33:24;;;;;;;1999.90;999.90;;;15.40;99.90;;;;;;5051801;28;20487;-74
2022/08/29 04:35:51;;;;;;;1999.90;999.90;;;15.40;99.90;;;;;;5058466;28;20492;-74
2022/08/29 04:38:17;;;;;;;1999.90;999.90;;;15.30;99.90;;;;;;5069038;28;20038;-74
2022/08/29 04:40:43;;;;;;;1999.90;999.90;;;15.30;99.90;;;;;;5072459;28;20126;-75
2022/08/29 04:43:09;;;;;;;1999.90;999.90;;;15.20;99.90;;;;;;5069444;28;20043;-74
2022/08/29 04:45:36;;;;;;;1999.90;999.90;;;15.20;99.90;;;;;;5056619;28;20059;-74
2022/08/29 04:48:02;;;;;;;1999.90;999.90;;;15.20;99.90;;;;;;5072746;28;20047;-74
2022/08/29 04:50:28;;;;;;;1999.90;999.90;;;15.10;99.90;;;;;;5060710;28;20119;-75
2022/08/29 04:52:55;;;;;;;1999.90;999.90;;;15.10;99.90;;;;;;5052143;28;20465;-75
2022/08/29 04:55:22;;;;;;;1999.90;999.90;;;15.10;99.90;;;;;;5070712;28;20067;-74
2022/08/29 04:57:50;;;;;;;1999.90;999.90;;;15.10;99.90;;;;;;5056451;28;20071;-74
2022/08/29 05:00:19;;;;;;;1999.90;999.90;;;15.10;99.90;;;;;;5058591;28;20075;-74
2022/08/29 05:02:45;;;;;;;1999.90;999.90;;;15.10;99.90;;;;;;5056262;28;20040;-74
2022/08/29 05:05:14;;;;;;;1999.90;999.90;;;15.10;99.90;;;;;;5056015;28;20450;-75
2022/08/29 05:07:41;;;;;;;1999.90;999.90;;;15.20;99.90;;;;;;5056233;28;20104;-74
2022/08/29 05:10:12;;;;;;;1999.90;999.90;;;15.20;99.90;;;;;;5068627;28;20094;-74
2022/08/29 05:12:38;;;;;;;1999.90;999.90;;;15.30;99.90;;;;;;5072142;28;20523;-75
2022/08/29 05:15:05;;;;;;;1999.90;999.90;;;15.30;99.90;;;;;;5063126;28;20048;-74
2022/08/29 05:17:31;;;;;;;1999.90;999.90;;;15.30;99.90;;;;;;5037769;28;20060;-74
2022/08/29 05:19:57;;;;;;;1999.90;999.90;;;15.40;99.90;;;;;;5072077;28;20032;-74
2022/08/29 05:22:23;;;;;;;1999.90;999.90;;;15.40;99.90;;;;;;5065036;28;20044;-74
2022/08/29 05:24:49;;;;;;;1999.90;999.90;;;15.50;99.90;;;;;;5055472;28;20487;-74
2022/08/29 05:27:20;;;;;;;1999.90;999.90;;;15.50;99.90;;;;;;5043786;28;20124;-74
2022/08/29 05:29:47;;;;;;;1999.90;999.90;;;15.50;99.90;;;;;;5050215;28;20560;-74
2022/08/29 05:32:14;;;;;;;1999.90;999.90;;;15.60;99.90;;;;;;5088852;28;20052;-75
2022/08/29 05:34:41;;;;;;;1999.90;999.90;;;15.60;99.90;;;;;;5056770;28;20044;-74
2022/08/29 05:37:10;;;;;;;1999.90;999.90;;;15.70;99.90;;;;;;5045422;28;20032;-74
2022/08/29 05:39:37;;;;;;;1999.90;999.90;;;15.70;99.90;;;;;;5049667;28;20479;-74
2022/08/29 05:42:04;;;;;;;1999.90;999.90;;;15.80;99.90;;;;;;5049303;28;20043;-74
2022/08/29 05:44:31;;;;;;;1999.90;999.90;;;15.80;99.90;;;;;;5048370;28;20059;-74
2022/08/29 05:46:58;;;;;;;1999.90;999.90;;;15.90;99.90;;;;;;5071671;28;20043;-74
2022/08/29 05:49:24;;;;;;;1999.90;999.90;;;15.90;99.90;;;;;;5055045;28;20135;-75
2022/08/29 05:51:54;;;;;;;1999.90;999.90;;;16.00;99.90;;;;;;5070320;28;20462;-74
2022/08/29 05:54:22;;;;;;;1999.90;999.90;;;16.00;99.90;;;;;;5068027;28;20044;-74
2022/08/29 05:56:48;;;;;;;1999.90;999.90;;;16.10;99.90;;;;;;5067168;28;20135;-74
2022/08/29 05:59:16;;;;;;;1999.90;999.90;;;16.20;99.90;;;;;;5070519;28;20562;-74
2022/08/29 06:01:41;;;;;;;1999.90;999.90;;;16.20;99.90;;;;;;5067979;28;20111;-74
2022/08/29 06:04:07;;;;;;;1999.90;999.90;;;16.30;99.90;;;;;;5061085;28;20075;-74
2022/08/29 06:06:33;;;;;;;1999.90;999.90;;;16.50;99.90;;;;;;5045271;28;20040;-74
2022/08/29 06:08:59;;;;;;;1999.90;999.90;;;16.60;99.90;;;;;;5042036;28;20097;-74
2022/08/29 06:11:28;;;;;;;1999.90;999.90;;;16.60;99.90;;;;;;5039652;28;20048;-74
2022/08/29 06:13:54;;;;;;;1999.90;999.90;;;16.70;99.90;;;;;;5059141;28;20145;-74
2022/08/29 06:16:22;;;;;;;1999.90;999.90;;;16.90;99.90;;;;;;5060039;28;20032;-74
2022/08/29 06:18:47;;;;;;;1999.90;999.90;;;16.90;99.90;;;;;;5059098;28;20071;-74
2022/08/29 06:21:14;;;;;;;1999.90;999.90;;;17.10;99.90;;;;;;5044751;28;20086;-74
2022/08/29 06:23:41;;;;;;;1999.90;999.90;;;17.10;99.90;;;;;;5051440;28;20551;-74
2022/08/29 06:26:08;;;;;;;1999.90;999.90;;;17.30;99.90;;;;;;5050776;28;20044;-74
2022/08/29 06:28:35;;;;;;;1999.90;999.90;;;17.30;99.90;;;;;;5048001;28;20092;-74
2022/08/29 06:31:23;;;;;;;1999.90;999.90;;;17.40;99.90;;;;;;5069876;28;20051;-74
2022/08/29 06:33:50;;;;;;;1999.90;999.90;;;17.50;99.90;;;;;;5068830;28;20109;-74
2022/08/29 06:36:16;;;;;;;1999.90;999.90;;;17.60;99.90;;;;;;5091577;28;20036;-74
2022/08/29 06:38:42;;;;;;;1999.90;999.90;;;17.60;99.90;;;;;;5057616;28;20441;-74
2022/08/29 06:41:11;;;;;;;1999.90;999.90;;;17.70;99.90;;;;;;5043491;28;20086;-74
2022/08/29 06:43:37;;;;;;;1999.90;999.90;;;17.70;99.90;;;;;;5063896;28;20043;-74
2022/08/29 06:46:03;;;;;;;1999.90;999.90;;;17.80;99.90;;;;;;5069019;28;20135;-74
2022/08/29 06:48:29;;;;;;;1999.90;999.90;;;17.90;99.90;;;;;;5061470;28;20131;-74
2022/08/29 06:50:56;;;;;;;1999.90;999.90;;;18.00;99.90;;;;;;5043763;28;20488;-74
2022/08/29 06:53:22;;;;;;;1999.90;999.90;;;18.10;99.90;;;;;;5059831;28;20050;-74
2022/08/29 06:55:48;;;;;;;1999.90;999.90;;;18.10;99.90;;;;;;5057316;28;20455;-74
2022/08/29 06:58:13;;;;;;;1999.90;999.90;;;18.20;99.90;;;;;;5053486;28;20062;-74
2022/08/29 07:00:41;;;;;;;1999.90;999.90;;;18.20;99.90;;;;;;5058855;28;20530;-74
2022/08/29 07:03:07;;;;;;;1999.90;999.90;;;18.20;99.90;;;;;;5058642;28;20032;-74
2022/08/29 07:05:33;;;;;;;1999.90;999.90;;;18.20;99.90;;;;;;5057474;28;20119;-74
2022/08/29 07:07:59;;;;;;;1999.90;999.90;;;18.20;99.90;;;;;;5062257;28;20575;-74
2022/08/29 07:10:24;;;;;;;1999.90;999.90;;;18.10;99.90;;;;;;5046466;28;20044;-74
2022/08/29 07:12:53;;;;;;;1999.90;999.90;;;18.10;99.90;;;;;;5071599;28;20055;-74
2022/08/29 07:15:21;;;;;;;1999.90;999.90;;;18.10;99.90;;;;;;5056026;28;20127;-74
2022/08/29 07:17:47;;;;;;;1999.90;999.90;;;18.20;99.90;;;;;;5048733;28;20036;-74
2022/08/29 07:20:14;;;;;;;1999.90;999.90;;;18.30;99.90;;;;;;5089109;28;20036;-74
2022/08/29 07:22:40;;;;;;;1999.90;999.90;;;18.30;99.90;;;;;;5051563;28;20040;-74
2022/08/29 07:25:06;;;;;;;1999.90;999.90;;;18.50;99.90;;;;;;5053754;28;20048;-74
2022/08/29 07:27:33;;;;;;;1999.90;999.90;;;18.50;99.90;;;;;;5052637;28;20503;-74
2022/08/29 07:30:01;;;;;;;1999.90;999.90;;;18.60;99.90;;;;;;5051863;28;20043;-74
2022/08/29 07:32:27;;;;;;;1999.90;999.90;;;18.70;99.90;;;;;;5053380;28;20044;-75
2022/08/29 07:34:53;;;;;;;1999.90;999.90;;;18.90;99.90;;;;;;5070175;28;20044;-74
2022/08/29 07:37:19;;;;;;;1999.90;999.90;;;19.00;99.90;;;;;;5069750;28;20453;-74
2022/08/29 07:39:44;;;;;;;1999.90;999.90;;;19.30;99.90;;;;;;5068091;28;20044;-74
2022/08/29 07:42:10;;;;;;;1999.90;999.90;;;19.60;99.90;;;;;;5070163;28;20032;-74
2022/08/29 07:44:36;;;;;;;1999.90;999.90;;;19.80;99.90;;;;;;5070412;28;20557;-74
2022/08/29 07:47:01;;;;;;;1999.90;999.90;;;19.90;99.90;;;;;;5048202;28;20385;-74
2022/08/29 07:49:30;;;;;;;1999.90;999.90;;;20.00;99.90;;;;;;5053326;28;20044;-74
2022/08/29 07:51:56;;;;;;;1999.90;999.90;;;20.00;99.90;;;;;;5056759;28;20043;-74
2022/08/29 07:54:22;;;;;;;1999.90;999.90;;;20.00;99.90;;;;;;5072257;28;20131;-75
2022/08/29 07:56:50;;;;;;;1999.90;999.90;;;20.00;99.90;;;;;;5048270;28;20032;-75
2022/08/29 07:59:18;;;;;;;1999.90;999.90;;;20.10;99.90;;;;;;5057649;28;20066;-74
2022/08/29 08:01:43;;;;;;;1999.90;999.90;;;20.10;99.90;;;;;;5047047;28;20403;-74
2022/08/29 08:04:09;;;;;;;1999.90;999.90;;;20.10;99.90;;;;;;5057379;28;20036;-75
2022/08/29 08:06:37;;;;;;;1999.90;999.90;;;20.10;99.90;;;;;;5073735;28;20055;-74
2022/08/29 08:09:08;;;;;;;1999.90;999.90;;;20.30;99.90;;;;;;5055830;28;20097;-74
2022/08/29 08:11:35;;;;;;;1999.90;999.90;;;20.40;99.90;;;;;;5071292;28;20048;-74
2022/08/29 08:14:02;;;;;;;1999.90;999.90;;;20.40;99.90;;;;;;5068831;28;20070;-74
2022/08/29 08:16:28;;;;;;;1999.90;999.90;;;20.30;99.90;;;;;;5055204;28;20407;-74
2022/08/29 08:18:55;;;;;;;1999.90;999.90;;;20.30;99.90;;;;;;5063144;28;20048;-74
2022/08/29 08:21:21;;;;;;;1999.90;999.90;;;20.20;99.90;;;;;;5072350;28;20036;-74
2022/08/29 08:24:02;;;;;;;1999.90;999.90;;;20.20;99.90;;;;;;5000201;28;20501;-75
2022/08/29 08:26:28;;;;;;;1999.90;999.90;;;20.20;99.90;;;;;;4982382;28;20046;-74
2022/08/29 08:28:53;;;;;;;1999.90;999.90;;;20.30;99.90;;;;;;4984574;28;20050;-74
2022/08/29 08:31:21;;;;;;;1999.90;999.90;;;20.30;99.90;;;;;;4978797;28;20061;-74
2022/08/29 08:33:47;;;;;;;1999.90;999.90;;;20.40;99.90;;;;;;4965606;28;20039;-74
2022/08/29 08:36:18;;;;;;;1999.90;999.90;;;20.50;99.90;;;;;;4988155;28;20064;-74
2022/08/29 08:38:44;;;;;;;1999.90;999.90;;;20.70;99.90;;;;;;4982936;28;20042;-74
2022/08/29 08:41:26;;;;;;;1999.90;999.90;;;20.90;99.90;;;;;;4997192;28;20567;-74
2022/08/29 08:44:02;;;;;;;1999.90;999.90;;;20.90;99.90;;;;;;4977613;28;20057;-74
2022/08/29 08:46:41;;;;;;;1999.90;999.90;;;21.00;99.90;;;;;;4991958;28;20062;-75
2022/08/29 08:49:16;;;;;;;1999.90;999.90;;;21.10;99.90;;;;;;4975923;28;20125;-75
2022/08/29 08:51:49;;;;;;;1999.90;999.90;;;21.30;99.90;;;;;;4979760;28;20125;-75
2022/08/29 08:54:22;;;;;;;1999.90;999.90;;;21.50;99.90;;;;;;4987702;28;20066;-74
2022/08/29 08:56:55;;;;;;;1999.90;999.90;;;22.00;99.90;;;;;;4972491;28;20533;-75
2022/08/29 08:59:33;;;;;;;1999.90;999.90;;;22.60;99.90;;;;;;4991752;28;20045;-75
2022/08/29 09:02:08;;;;;;;1999.90;999.90;;;23.00;99.90;;;;;;5047642;28;20050;-75
2022/08/29 09:04:51;;;;;;;1999.90;999.90;;;23.30;99.90;;;;;;5056437;28;20071;-75
2022/08/29 09:07:48;;;;;;;1999.90;999.90;;;23.10;99.90;;;;;;5067799;28;20086;-75
2022/08/29 09:10:33;;;;;;;1999.90;999.90;;;23.30;99.90;;;;;;5070164;28;20039;-75
2022/08/29 09:13:14;;;;;;;1999.90;999.90;;;23.40;99.90;;;;;;5055833;28;20047;-75
2022/08/29 09:15:46;;;;;;;1999.90;999.90;;;23.80;99.90;;;;;;5041826;28;20543;-75
2022/08/29 09:18:22;;;;;;;1999.90;999.90;;;23.60;99.90;;;;;;5049291;28;20024;-75
2022/08/29 09:20:49;;;;;;;1999.90;999.90;;;23.10;99.90;;;;;;5067150;28;20040;-75
2022/08/29 09:23:24;;;;;;;1999.90;999.90;;;23.10;99.90;;;;;;5055573;28;20062;-75
2022/08/29 09:25:50;;;;;;;1999.90;999.90;;;23.50;99.90;;;;;;5052933;28;20480;-75
2022/08/29 09:28:16;;;;;;;1999.90;999.90;;;23.60;99.90;;;;;;5072392;28;20044;-75
2022/08/29 09:31:04;;;;;;;1999.90;999.90;;;23.60;99.90;;;;;;5054409;28;20384;-75
2022/08/29 09:33:41;;;;;;;1999.90;999.90;;;23.50;99.90;;;;;;5072117;28;20063;-75
2022/08/29 09:36:12;;;;;;;1999.90;999.90;;;23.40;99.90;;;;;;5055285;28;20052;-75
2022/08/29 09:38:38;;;;;;;1999.90;999.90;;;23.80;99.90;;;;;;5072264;28;20039;-75
2022/08/29 09:41:07;;;;;;;1999.90;999.90;;;23.70;99.90;;;;;;5048805;28;20043;-75
2022/08/29 09:43:38;;;;;;;1999.90;999.90;;;23.40;99.90;;;;;;5054317;28;20089;-75
2022/08/29 09:46:10;;;;;;;1999.90;999.90;;;23.00;99.90;;;;;;5067256;28;20047;-75
2022/08/29 09:48:39;;;;;;;1999.90;999.90;;;22.50;99.90;;;;;;5072118;28;20044;-75
2022/08/29 09:51:18;;;;;;;1999.90;999.90;;;22.20;99.90;;;;;;5072756;28;20384;-75
2022/08/29 09:53:44;;;;;;;1999.90;999.90;;;21.80;99.90;;;;;;5067849;28;20151;-75
2022/08/29 09:56:25;;;;;;;1999.90;999.90;;;21.70;99.90;;;;;;5071474;28;20561;-75
2022/08/29 09:59:09;;;;;;;1999.90;999.90;;;21.60;99.90;;;;;;5069069;28;20383;-75
2022/08/29 10:01:37;;;;;;;1999.90;999.90;;;21.50;99.90;;;;;;5070767;28;20032;-75
2022/08/29 10:04:06;;;;;;;1999.90;999.90;;;21.50;99.90;;;;;;5058066;28;20493;-75
2022/08/29 10:06:39;;;;;;;1999.90;999.90;;;21.50;99.90;;;;;;5071568;28;20036;-75
2022/08/29 10:09:22;;;;;;;1999.90;999.90;;;21.90;99.90;;;;;;5066790;28;20028;-75
2022/08/29 10:11:59;;;;;;;1999.90;999.90;;;22.40;99.90;;;;;;5071411;28;20546;-75
2022/08/29 10:14:34;;;;;;;1999.90;999.90;;;22.90;99.90;;;;;;5066812;28;20052;-76
2022/08/29 10:19:57;;;;;;;1999.90;999.90;;;22.90;99.90;;;;;;5058449;28;20043;-75
2022/08/29 10:22:34;;;;;;;1999.90;999.90;;;22.80;99.90;;;;;;5047409;28;20039;-75
2022/08/29 10:25:34;;;;;;;1999.90;999.90;;;22.50;99.90;;;;;;5057253;28;20067;-75
2022/08/29 10:28:30;;;;;;;1999.90;999.90;;;22.40;99.90;;;;;;5065368;28;20130;-75
2022/08/29 10:31:07;;;;;;;1999.90;999.90;;;22.10;99.90;;;;;;5080013;28;20073;-75
2022/08/29 10:34:01;;;;;;;1999.90;999.90;;;21.90;99.90;;;;;;5091902;28;20052;-75
2022/08/29 10:36:34;;;;;;;1999.90;999.90;;;21.70;99.90;;;;;;5054145;28;20127;-75
2022/08/29 10:39:23;;;;;;;1999.90;999.90;;;21.50;99.90;;;;;;5046693;28;20032;-75
2022/08/29 10:42:04;;;;;;;1999.90;999.90;;;21.40;99.90;;;;;;5087877;28;20122;-75
2022/08/29 10:44:53;;;;;;;1999.90;999.90;;;21.40;99.90;;;;;;5061437;28;20100;-75
2022/08/29 10:47:38;;;;;;;1999.90;999.90;;;21.20;99.90;;;;;;5058372;28;20046;-75
2022/08/29 10:50:13;;;;;;;1999.90;999.90;;;21.20;99.90;;;;;;5069362;28;20031;-75
2022/08/29 10:52:55;;;;;;;1999.90;999.90;;;21.10;99.90;;;;;;5049210;28;20062;-75
2022/08/29 10:55:50;;;;;;;1999.90;999.90;;;21.10;99.90;;;;;;5069285;28;20058;-75
2022/08/29 10:58:34;;;;;;;1999.90;999.90;;;21.10;99.90;;;;;;5071006;28;20395;-75
2022/08/29 11:01:26;;;;;;;1999.90;999.90;;;21.00;99.90;;;;;;5070835;28;20047;-75
2022/08/29 11:04:07;;;;;;;1999.90;999.90;;;21.10;99.90;;;;;;5049071;28;20040;-75
2022/08/29 11:07:00;;;;;;;1999.90;999.90;;;21.10;99.90;;;;;;5068882;28;20503;-75
2022/08/29 11:09:36;;;;;;;1999.90;999.90;;;21.10;99.90;;;;;;5055544;28;20415;-75
2022/08/29 11:12:10;;;;;;;1999.90;999.90;;;21.10;99.90;;;;;;5066241;28;20047;-75
2022/08/29 11:14:48;;;;;;;1999.90;999.90;;;21.10;99.90;;;;;;5056780;28;20127;-75
2022/08/29 11:17:16;;;;;;;1999.90;999.90;;;21.20;99.90;;;;;;5062982;28;20039;-74
2022/08/29 11:20:10;;;;;;;1999.90;999.90;;;21.30;99.90;;;;;;5069860;28;20050;-75
2022/08/29 11:22:51;;;;;;;1999.90;999.90;;;21.30;99.90;;;;;;5053271;28;20036;-75
2022/08/29 11:25:19;;;;;;;1999.90;999.90;;;21.20;99.90;;;;;;5053537;28;20499;-75
2022/08/29 11:28:12;;;;;;;1999.90;999.90;;;21.20;99.90;;;;;;5048995;28;20101;-75
2022/08/29 11:30:41;;;;;;;;;;;21.10;99.90;;;;;;5058492;28;20052;-75
2022/08/29 11:33:15;;;;;;;1999.90;999.90;;;21.00;99.90;;;;;;5074375;28;20003;-75
2022/08/29 11:35:46;;;;;;;1999.90;999.90;;;21.00;99.90;;;;;;5065305;28;20044;-75
2022/08/29 11:38:19;;;;;;;1999.90;999.90;;;21.10;99.90;;;;;;5072976;28;20036;-75
2022/08/29 11:41:02;;;;;;;1999.90;999.90;;;21.20;99.90;;;;;;5047996;28;20400;-75
2022/08/29 11:43:34;;;;;;;1999.90;999.90;;;21.30;99.90;;;;;;5073338;28;20079;-75
2022/08/29 11:46:03;;;;;;;1999.90;999.90;;;21.30;99.90;;;;;;5057802;28;20048;-75
2022/08/29 11:48:41;;;;;;;1999.90;999.90;;;21.30;99.90;;;;;;5074133;28;20044;-75
2022/08/29 11:51:36;;;;;;;1999.90;999.90;;;21.30;99.90;;;;;;5049139;28;20476;-75
2022/08/29 11:54:24;;;;;;;1999.90;999.90;;;21.30;99.90;;;;;;5072246;28;20517;-75
2022/08/29 11:57:10;;;;;;;1999.90;999.90;;;21.50;99.90;;;;;;5072812;28;20048;-75
2022/08/29 11:59:48;;;;;;;1999.90;999.90;;;21.60;99.90;;;;;;5065446;28;20100;-75
2022/08/29 12:02:29;;;;;;;1999.90;999.90;;;21.70;99.90;;;;;;5052970;28;20032;-75
2022/08/29 12:05:16;;;;;;;1999.90;999.90;;;21.70;99.90;;;;;;5073942;28;20054;-75
2022/08/29 12:07:50;;;;;;;1999.90;999.90;;;21.80;99.90;;;;;;5067525;28;20093;-75
2022/08/29 12:10:20;;;;;;;1999.90;999.90;;;21.80;99.90;;;;;;5055002;28;20082;-75
2022/08/29 12:12:52;;;;;;;1999.90;999.90;;;21.90;99.90;;;;;;5073921;28;20115;-75
2022/08/29 12:15:30;;;;;;;1999.90;999.90;;;21.90;99.90;;;;;;5062629;28;20036;-75
2022/08/29 12:17:56;;;;;;;1999.90;999.90;;;21.90;99.90;;;;;;5072194;28;20042;-75
2022/08/29 12:20:37;;;;;;;1999.90;999.90;;;21.90;99.90;;;;;;5073830;28;20407;-75